sensor_id;sensor_type;location;lat;lon;timestamp;P1;durP1;ratioP1;P2;durP2;ratioP2
22829;SDS011;11581;51.250;6.778;2024-01-25T00:00:18;26.63;;;6.28;;
22829;SDS011;11581;51.250;6.778;2024-01-25T00:02:44;25.08;;;5.63;;
22829;SDS011;11581;51.250;6.778;2024-01-25T00:05:11;23.65;;;5.47;;
22829;SDS011;11581;51.250;6.778;2024-01-25T00:07:46;27.33;;;6.97;;
22829;SDS011;11581;51.250;6.778;2024-01-25T00:10:13;26.40;;;5.80;;
22829;SDS011;11581;51.250;6.778;2024-01-25T00:12:40;20.00;;;5.40;;
22829;SDS011;11581;51.250;6.778;2024-01-25T00:15:06;25.02;;;6.50;;
22829;SDS011;11581;51.250;6.778;2024-01-25T00:17:33;23.88;;;4.82;;
22829;SDS011;11581;51.250;6.778;2024-01-25T00:19:59;28.73;;;5.93;;
22829;SDS011;11581;51.250;6.778;2024-01-25T00:22:26;26.30;;;5.78;;
22829;SDS011;11581;51.250;6.778;2024-01-25T00:24:53;26.80;;;5.43;;
22829;SDS011;11581;51.250;6.778;2024-01-25T00:27:20;22.02;;;5.30;;
22829;SDS011;11581;51.250;6.778;2024-01-25T00:29:46;22.85;;;5.85;;
22829;SDS011;11581;51.250;6.778;2024-01-25T00:32:13;22.30;;;6.28;;
22829;SDS011;11581;51.250;6.778;2024-01-25T00:34:40;24.58;;;5.18;;
22829;SDS011;11581;51.250;6.778;2024-01-25T00:37:07;27.92;;;5.60;;
22829;SDS011;11581;51.250;6.778;2024-01-25T00:39:34;21.60;;;4.78;;
22829;SDS011;11581;51.250;6.778;2024-01-25T00:42:03;27.15;;;6.28;;
22829;SDS011;11581;51.250;6.778;2024-01-25T00:44:30;19.67;;;5.25;;
22829;SDS011;11581;51.250;6.778;2024-01-25T00:46:57;28.67;;;6.25;;
22829;SDS011;11581;51.250;6.778;2024-01-25T00:49:24;17.58;;;5.00;;
22829;SDS011;11581;51.250;6.778;2024-01-25T00:51:51;21.42;;;5.28;;
22829;SDS011;11581;51.250;6.778;2024-01-25T00:54:22;23.50;;;5.60;;
22829;SDS011;11581;51.250;6.778;2024-01-25T00:56:48;22.90;;;5.78;;
22829;SDS011;11581;51.250;6.778;2024-01-25T00:59:19;25.30;;;6.20;;
22829;SDS011;11581;51.250;6.778;2024-01-25T01:01:46;26.15;;;5.57;;
22829;SDS011;11581;51.250;6.778;2024-01-25T01:04:13;21.90;;;6.00;;
22829;SDS011;11581;51.250;6.778;2024-01-25T01:06:40;19.75;;;5.13;;
22829;SDS011;11581;51.250;6.778;2024-01-25T01:09:06;21.75;;;5.60;;
22829;SDS011;11581;51.250;6.778;2024-01-25T01:11:33;24.90;;;6.22;;
22829;SDS011;11581;51.250;6.778;2024-01-25T01:13:59;22.95;;;5.35;;
22829;SDS011;11581;51.250;6.778;2024-01-25T01:16:27;26.83;;;5.70;;
22829;SDS011;11581;51.250;6.778;2024-01-25T01:18:56;27.98;;;6.05;;
22829;SDS011;11581;51.250;6.778;2024-01-25T01:21:22;26.73;;;5.82;;
22829;SDS011;11581;51.250;6.778;2024-01-25T01:23:48;22.88;;;5.70;;
22829;SDS011;11581;51.250;6.778;2024-01-25T01:26:15;24.25;;;5.95;;
22829;SDS011;11581;51.250;6.778;2024-01-25T01:28:41;30.58;;;5.97;;
22829;SDS011;11581;51.250;6.778;2024-01-25T01:31:08;29.08;;;6.30;;
22829;SDS011;11581;51.250;6.778;2024-01-25T01:33:36;21.83;;;5.22;;
22829;SDS011;11581;51.250;6.778;2024-01-25T01:36:02;24.20;;;5.82;;
22829;SDS011;11581;51.250;6.778;2024-01-25T01:38:29;22.75;;;5.25;;
22829;SDS011;11581;51.250;6.778;2024-01-25T01:40:56;18.48;;;5.22;;
22829;SDS011;11581;51.250;6.778;2024-01-25T01:43:31;22.98;;;6.13;;
22829;SDS011;11581;51.250;6.778;2024-01-25T01:46:00;25.27;;;5.30;;
22829;SDS011;11581;51.250;6.778;2024-01-25T01:48:30;20.00;;;5.38;;
22829;SDS011;11581;51.250;6.778;2024-01-25T01:50:58;26.67;;;5.95;;
22829;SDS011;11581;51.250;6.778;2024-01-25T01:53:24;21.90;;;5.68;;
22829;SDS011;11581;51.250;6.778;2024-01-25T01:55:51;19.27;;;5.25;;
22829;SDS011;11581;51.250;6.778;2024-01-25T01:58:17;23.20;;;5.63;;
22829;SDS011;11581;51.250;6.778;2024-01-25T02:00:45;22.63;;;6.13;;
22829;SDS011;11581;51.250;6.778;2024-01-25T02:03:12;24.23;;;6.05;;
22829;SDS011;11581;51.250;6.778;2024-01-25T02:05:38;23.73;;;5.65;;
22829;SDS011;11581;51.250;6.778;2024-01-25T02:08:06;21.77;;;5.78;;
22829;SDS011;11581;51.250;6.778;2024-01-25T02:10:33;21.60;;;5.70;;
22829;SDS011;11581;51.250;6.778;2024-01-25T02:12:59;25.58;;;6.05;;
22829;SDS011;11581;51.250;6.778;2024-01-25T02:15:26;24.25;;;6.30;;
22829;SDS011;11581;51.250;6.778;2024-01-25T02:17:52;23.58;;;5.63;;
22829;SDS011;11581;51.250;6.778;2024-01-25T02:20:19;26.80;;;5.68;;
22829;SDS011;11581;51.250;6.778;2024-01-25T02:22:47;17.90;;;5.07;;
22829;SDS011;11581;51.250;6.778;2024-01-25T02:25:13;20.95;;;5.25;;
22829;SDS011;11581;51.250;6.778;2024-01-25T02:27:40;31.33;;;5.65;;
22829;SDS011;11581;51.250;6.778;2024-01-25T02:30:09;19.30;;;5.85;;
22829;SDS011;11581;51.250;6.778;2024-01-25T02:32:36;33.00;;;5.85;;
22829;SDS011;11581;51.250;6.778;2024-01-25T02:35:02;29.58;;;5.55;;
22829;SDS011;11581;51.250;6.778;2024-01-25T02:37:32;27.77;;;5.78;;
22829;SDS011;11581;51.250;6.778;2024-01-25T02:40:00;26.98;;;5.35;;
22829;SDS011;11581;51.250;6.778;2024-01-25T02:42:26;21.42;;;5.43;;
22829;SDS011;11581;51.250;6.778;2024-01-25T02:44:53;22.17;;;5.50;;
22829;SDS011;11581;51.250;6.778;2024-01-25T02:47:19;19.90;;;5.65;;
22829;SDS011;11581;51.250;6.778;2024-01-25T02:49:46;25.05;;;5.88;;
22829;SDS011;11581;51.250;6.778;2024-01-25T02:52:12;26.75;;;5.65;;
22829;SDS011;11581;51.250;6.778;2024-01-25T02:54:39;31.23;;;6.70;;
22829;SDS011;11581;51.250;6.778;2024-01-25T02:57:06;27.02;;;5.78;;
22829;SDS011;11581;51.250;6.778;2024-01-25T02:59:33;25.38;;;6.88;;
22829;SDS011;11581;51.250;6.778;2024-01-25T03:01:59;25.38;;;6.03;;
22829;SDS011;11581;51.250;6.778;2024-01-25T03:04:26;23.98;;;5.78;;
22829;SDS011;11581;51.250;6.778;2024-01-25T03:06:52;27.55;;;5.75;;
22829;SDS011;11581;51.250;6.778;2024-01-25T03:09:18;24.58;;;5.00;;
22829;SDS011;11581;51.250;6.778;2024-01-25T03:11:46;23.33;;;5.78;;
22829;SDS011;11581;51.250;6.778;2024-01-25T03:14:14;24.38;;;5.63;;
22829;SDS011;11581;51.250;6.778;2024-01-25T03:16:40;28.27;;;5.75;;
22829;SDS011;11581;51.250;6.778;2024-01-25T03:19:10;25.67;;;6.65;;
22829;SDS011;11581;51.250;6.778;2024-01-25T03:21:37;25.65;;;5.82;;
22829;SDS011;11581;51.250;6.778;2024-01-25T03:24:04;29.27;;;6.50;;
22829;SDS011;11581;51.250;6.778;2024-01-25T03:26:30;19.58;;;4.45;;
22829;SDS011;11581;51.250;6.778;2024-01-25T03:28:57;25.00;;;5.75;;
22829;SDS011;11581;51.250;6.778;2024-01-25T03:31:24;24.85;;;5.57;;
22829;SDS011;11581;51.250;6.778;2024-01-25T03:33:51;26.98;;;5.68;;
22829;SDS011;11581;51.250;6.778;2024-01-25T03:36:17;25.17;;;5.60;;
22829;SDS011;11581;51.250;6.778;2024-01-25T03:38:44;33.58;;;5.78;;
22829;SDS011;11581;51.250;6.778;2024-01-25T03:41:10;26.90;;;6.13;;
22829;SDS011;11581;51.250;6.778;2024-01-25T03:43:36;28.52;;;5.68;;
22829;SDS011;11581;51.250;6.778;2024-01-25T03:46:03;26.50;;;5.45;;
22829;SDS011;11581;51.250;6.778;2024-01-25T03:48:31;25.98;;;5.70;;
22829;SDS011;11581;51.250;6.778;2024-01-25T03:50:58;31.65;;;6.53;;
22829;SDS011;11581;51.250;6.778;2024-01-25T03:53:24;21.70;;;6.47;;
22829;SDS011;11581;51.250;6.778;2024-01-25T03:55:50;20.15;;;4.82;;
22829;SDS011;11581;51.250;6.778;2024-01-25T03:58:17;29.63;;;6.07;;
22829;SDS011;11581;51.250;6.778;2024-01-25T04:00:44;24.40;;;5.60;;
22829;SDS011;11581;51.250;6.778;2024-01-25T04:03:10;30.05;;;5.72;;
22829;SDS011;11581;51.250;6.778;2024-01-25T04:05:38;26.58;;;5.90;;
22829;SDS011;11581;51.250;6.778;2024-01-25T04:08:05;25.17;;;6.78;;
22829;SDS011;11581;51.250;6.778;2024-01-25T04:10:32;24.55;;;5.60;;
22829;SDS011;11581;51.250;6.778;2024-01-25T04:12:59;25.27;;;5.60;;
22829;SDS011;11581;51.250;6.778;2024-01-25T04:15:27;19.92;;;5.05;;
22829;SDS011;11581;51.250;6.778;2024-01-25T04:17:53;25.85;;;6.38;;
22829;SDS011;11581;51.250;6.778;2024-01-25T04:20:21;24.38;;;4.50;;
22829;SDS011;11581;51.250;6.778;2024-01-25T04:22:48;23.65;;;5.72;;
22829;SDS011;11581;51.250;6.778;2024-01-25T04:25:15;21.65;;;5.50;;
22829;SDS011;11581;51.250;6.778;2024-01-25T04:27:41;25.10;;;5.57;;
22829;SDS011;11581;51.250;6.778;2024-01-25T04:30:08;26.30;;;5.82;;
22829;SDS011;11581;51.250;6.778;2024-01-25T04:32:35;22.98;;;5.15;;
22829;SDS011;11581;51.250;6.778;2024-01-25T04:35:01;30.23;;;4.70;;
22829;SDS011;11581;51.250;6.778;2024-01-25T04:37:28;36.10;;;6.10;;
22829;SDS011;11581;51.250;6.778;2024-01-25T04:39:56;28.20;;;6.07;;
22829;SDS011;11581;51.250;6.778;2024-01-25T04:42:22;32.60;;;6.18;;
22829;SDS011;11581;51.250;6.778;2024-01-25T04:44:48;19.63;;;5.20;;
22829;SDS011;11581;51.250;6.778;2024-01-25T04:47:15;26.38;;;6.05;;
22829;SDS011;11581;51.250;6.778;2024-01-25T04:49:41;23.95;;;5.43;;
22829;SDS011;11581;51.250;6.778;2024-01-25T04:52:08;29.83;;;6.55;;
22829;SDS011;11581;51.250;6.778;2024-01-25T04:54:34;26.58;;;5.53;;
22829;SDS011;11581;51.250;6.778;2024-01-25T04:57:02;26.05;;;5.90;;
22829;SDS011;11581;51.250;6.778;2024-01-25T04:59:31;28.08;;;5.82;;
22829;SDS011;11581;51.250;6.778;2024-01-25T05:01:58;21.25;;;5.03;;
22829;SDS011;11581;51.250;6.778;2024-01-25T05:04:24;18.90;;;4.38;;
22829;SDS011;11581;51.250;6.778;2024-01-25T05:06:50;30.90;;;6.00;;
22829;SDS011;11581;51.250;6.778;2024-01-25T05:09:17;24.50;;;6.25;;
22829;SDS011;11581;51.250;6.778;2024-01-25T05:11:43;35.60;;;6.75;;
22829;SDS011;11581;51.250;6.778;2024-01-25T05:14:11;24.83;;;5.32;;
22829;SDS011;11581;51.250;6.778;2024-01-25T05:16:38;21.80;;;4.93;;
22829;SDS011;11581;51.250;6.778;2024-01-25T05:19:04;24.42;;;5.47;;
22829;SDS011;11581;51.250;6.778;2024-01-25T05:21:30;28.45;;;5.78;;
22829;SDS011;11581;51.250;6.778;2024-01-25T05:23:57;31.17;;;6.38;;
22829;SDS011;11581;51.250;6.778;2024-01-25T05:26:23;27.48;;;5.82;;
22829;SDS011;11581;51.250;6.778;2024-01-25T05:28:50;24.73;;;5.28;;
22829;SDS011;11581;51.250;6.778;2024-01-25T05:31:18;26.95;;;5.78;;
22829;SDS011;11581;51.250;6.778;2024-01-25T05:33:44;30.25;;;6.15;;
22829;SDS011;11581;51.250;6.778;2024-01-25T05:36:11;21.95;;;4.85;;
22829;SDS011;11581;51.250;6.778;2024-01-25T05:38:39;34.55;;;6.10;;
22829;SDS011;11581;51.250;6.778;2024-01-25T05:41:05;22.42;;;5.32;;
22829;SDS011;11581;51.250;6.778;2024-01-25T05:43:32;30.73;;;6.10;;
22829;SDS011;11581;51.250;6.778;2024-01-25T05:45:59;25.40;;;5.63;;
22829;SDS011;11581;51.250;6.778;2024-01-25T05:48:26;21.58;;;5.40;;
22829;SDS011;11581;51.250;6.778;2024-01-25T05:50:53;31.60;;;6.47;;
22829;SDS011;11581;51.250;6.778;2024-01-25T05:53:19;32.30;;;6.22;;
22829;SDS011;11581;51.250;6.778;2024-01-25T05:55:46;23.17;;;6.43;;
22829;SDS011;11581;51.250;6.778;2024-01-25T05:58:13;23.33;;;6.00;;
22829;SDS011;11581;51.250;6.778;2024-01-25T06:00:39;33.70;;;5.75;;
22829;SDS011;11581;51.250;6.778;2024-01-25T06:03:06;22.20;;;5.05;;
22829;SDS011;11581;51.250;6.778;2024-01-25T06:05:34;24.15;;;5.38;;
22829;SDS011;11581;51.250;6.778;2024-01-25T06:08:00;23.23;;;5.35;;
22829;SDS011;11581;51.250;6.778;2024-01-25T06:10:27;27.92;;;5.82;;
22829;SDS011;11581;51.250;6.778;2024-01-25T06:12:53;21.00;;;6.20;;
22829;SDS011;11581;51.250;6.778;2024-01-25T06:15:20;27.30;;;5.50;;
22829;SDS011;11581;51.250;6.778;2024-01-25T06:17:46;27.17;;;5.35;;
22829;SDS011;11581;51.250;6.778;2024-01-25T06:20:13;25.05;;;5.50;;
22829;SDS011;11581;51.250;6.778;2024-01-25T06:22:41;23.58;;;5.35;;
22829;SDS011;11581;51.250;6.778;2024-01-25T06:25:07;25.58;;;6.32;;
22829;SDS011;11581;51.250;6.778;2024-01-25T06:27:36;26.77;;;5.85;;
22829;SDS011;11581;51.250;6.778;2024-01-25T06:30:41;28.17;;;5.70;;
22829;SDS011;11581;51.250;6.778;2024-01-25T06:33:08;31.10;;;6.03;;
22829;SDS011;11581;51.250;6.778;2024-01-25T06:35:34;27.77;;;6.20;;
22829;SDS011;11581;51.250;6.778;2024-01-25T06:38:02;27.45;;;6.65;;
22829;SDS011;11581;51.250;6.778;2024-01-25T06:40:29;29.08;;;4.97;;
22829;SDS011;11581;51.250;6.778;2024-01-25T06:42:55;18.83;;;4.28;;
22829;SDS011;11581;51.250;6.778;2024-01-25T06:45:22;23.95;;;4.63;;
22829;SDS011;11581;51.250;6.778;2024-01-25T06:47:48;27.80;;;6.13;;
22829;SDS011;11581;51.250;6.778;2024-01-25T06:50:14;27.05;;;5.43;;
22829;SDS011;11581;51.250;6.778;2024-01-25T06:52:41;23.58;;;5.28;;
22829;SDS011;11581;51.250;6.778;2024-01-25T06:55:09;27.48;;;6.13;;
22829;SDS011;11581;51.250;6.778;2024-01-25T06:57:35;23.85;;;4.72;;
22829;SDS011;11581;51.250;6.778;2024-01-25T07:00:01;29.80;;;5.82;;
22829;SDS011;11581;51.250;6.778;2024-01-25T07:02:27;27.88;;;5.32;;
22829;SDS011;11581;51.250;6.778;2024-01-25T07:04:55;23.30;;;5.03;;
22829;SDS011;11581;51.250;6.778;2024-01-25T07:07:22;27.95;;;6.00;;
22829;SDS011;11581;51.250;6.778;2024-01-25T07:09:48;22.25;;;5.05;;
22829;SDS011;11581;51.250;6.778;2024-01-25T07:12:16;24.48;;;6.13;;
22829;SDS011;11581;51.250;6.778;2024-01-25T07:14:42;25.52;;;5.18;;
22829;SDS011;11581;51.250;6.778;2024-01-25T07:17:09;23.58;;;5.95;;
22829;SDS011;11581;51.250;6.778;2024-01-25T07:19:35;34.20;;;6.90;;
22829;SDS011;11581;51.250;6.778;2024-01-25T07:22:03;23.88;;;5.57;;
22829;SDS011;11581;51.250;6.778;2024-01-25T07:24:29;33.28;;;6.22;;
22829;SDS011;11581;51.250;6.778;2024-01-25T07:26:56;23.95;;;5.72;;
22829;SDS011;11581;51.250;6.778;2024-01-25T07:29:23;24.60;;;5.93;;
22829;SDS011;11581;51.250;6.778;2024-01-25T07:31:50;19.90;;;4.65;;
22829;SDS011;11581;51.250;6.778;2024-01-25T07:34:16;26.98;;;5.55;;
22829;SDS011;11581;51.250;6.778;2024-01-25T07:36:43;21.10;;;5.28;;
22829;SDS011;11581;51.250;6.778;2024-01-25T07:39:09;26.40;;;6.65;;
22829;SDS011;11581;51.250;6.778;2024-01-25T07:41:37;24.48;;;6.15;;
22829;SDS011;11581;51.250;6.778;2024-01-25T07:44:03;24.02;;;6.07;;
22829;SDS011;11581;51.250;6.778;2024-01-25T07:46:32;27.52;;;5.93;;
22829;SDS011;11581;51.250;6.778;2024-01-25T07:48:59;25.13;;;6.05;;
22829;SDS011;11581;51.250;6.778;2024-01-25T07:51:26;31.85;;;6.30;;
22829;SDS011;11581;51.250;6.778;2024-01-25T07:53:53;29.20;;;5.82;;
22829;SDS011;11581;51.250;6.778;2024-01-25T07:56:20;29.42;;;6.45;;
22829;SDS011;11581;51.250;6.778;2024-01-25T07:58:47;23.95;;;5.60;;
22829;SDS011;11581;51.250;6.778;2024-01-25T08:01:13;22.27;;;5.85;;
22829;SDS011;11581;51.250;6.778;2024-01-25T08:03:44;29.77;;;6.28;;
22829;SDS011;11581;51.250;6.778;2024-01-25T08:06:11;29.48;;;6.95;;
22829;SDS011;11581;51.250;6.778;2024-01-25T08:08:37;25.63;;;6.68;;
22829;SDS011;11581;51.250;6.778;2024-01-25T08:11:04;35.58;;;6.22;;
22829;SDS011;11581;51.250;6.778;2024-01-25T08:13:30;35.20;;;7.28;;
22829;SDS011;11581;51.250;6.778;2024-01-25T08:15:57;28.70;;;6.38;;
22829;SDS011;11581;51.250;6.778;2024-01-25T08:18:23;29.67;;;7.18;;
22829;SDS011;11581;51.250;6.778;2024-01-25T08:20:53;26.35;;;6.50;;
22829;SDS011;11581;51.250;6.778;2024-01-25T08:23:19;28.95;;;6.25;;
22829;SDS011;11581;51.250;6.778;2024-01-25T08:25:46;23.02;;;5.65;;
22829;SDS011;11581;51.250;6.778;2024-01-25T08:28:12;33.67;;;7.03;;
22829;SDS011;11581;51.250;6.778;2024-01-25T08:30:39;21.58;;;6.85;;
22829;SDS011;11581;51.250;6.778;2024-01-25T08:33:05;27.65;;;7.13;;
22829;SDS011;11581;51.250;6.778;2024-01-25T08:35:32;23.98;;;6.80;;
22829;SDS011;11581;51.250;6.778;2024-01-25T08:37:59;24.95;;;6.50;;
22829;SDS011;11581;51.250;6.778;2024-01-25T08:40:26;30.10;;;8.35;;
22829;SDS011;11581;51.250;6.778;2024-01-25T08:42:52;23.85;;;5.90;;
22829;SDS011;11581;51.250;6.778;2024-01-25T08:45:19;26.23;;;6.43;;
22829;SDS011;11581;51.250;6.778;2024-01-25T08:47:45;27.08;;;7.47;;
22829;SDS011;11581;51.250;6.778;2024-01-25T08:50:15;28.88;;;7.25;;
22829;SDS011;11581;51.250;6.778;2024-01-25T08:52:42;29.08;;;8.00;;
22829;SDS011;11581;51.250;6.778;2024-01-25T08:55:09;35.58;;;8.00;;
22829;SDS011;11581;51.250;6.778;2024-01-25T08:57:36;26.05;;;7.30;;
22829;SDS011;11581;51.250;6.778;2024-01-25T09:00:03;26.90;;;6.68;;
22829;SDS011;11581;51.250;6.778;2024-01-25T09:02:34;26.13;;;6.35;;
22829;SDS011;11581;51.250;6.778;2024-01-25T09:05:00;22.13;;;7.55;;
22829;SDS011;11581;51.250;6.778;2024-01-25T09:07:27;32.28;;;8.00;;
22829;SDS011;11581;51.250;6.778;2024-01-25T09:09:56;28.52;;;7.13;;
22829;SDS011;11581;51.250;6.778;2024-01-25T09:12:25;28.27;;;7.35;;
22829;SDS011;11581;51.250;6.778;2024-01-25T09:14:51;23.60;;;6.45;;
22829;SDS011;11581;51.250;6.778;2024-01-25T09:17:18;29.95;;;7.13;;
22829;SDS011;11581;51.250;6.778;2024-01-25T09:19:47;22.90;;;6.78;;
22829;SDS011;11581;51.250;6.778;2024-01-25T09:22:13;25.13;;;7.28;;
22829;SDS011;11581;51.250;6.778;2024-01-25T09:24:42;25.25;;;7.40;;
22829;SDS011;11581;51.250;6.778;2024-01-25T09:27:08;24.20;;;6.95;;
22829;SDS011;11581;51.250;6.778;2024-01-25T09:29:36;28.67;;;7.07;;
22829;SDS011;11581;51.250;6.778;2024-01-25T09:32:04;25.15;;;7.05;;
22829;SDS011;11581;51.250;6.778;2024-01-25T09:34:30;35.28;;;8.43;;
22829;SDS011;11581;51.250;6.778;2024-01-25T09:36:57;27.88;;;7.95;;
22829;SDS011;11581;51.250;6.778;2024-01-25T09:39:23;31.60;;;7.57;;
22829;SDS011;11581;51.250;6.778;2024-01-25T09:41:50;31.25;;;8.20;;
22829;SDS011;11581;51.250;6.778;2024-01-25T09:44:16;33.47;;;8.70;;
22829;SDS011;11581;51.250;6.778;2024-01-25T09:46:45;26.27;;;7.68;;
22829;SDS011;11581;51.250;6.778;2024-01-25T09:49:11;22.52;;;5.97;;
22829;SDS011;11581;51.250;6.778;2024-01-25T09:51:39;25.83;;;8.40;;
22829;SDS011;11581;51.250;6.778;2024-01-25T09:54:06;27.98;;;7.95;;
22829;SDS011;11581;51.250;6.778;2024-01-25T09:56:33;22.40;;;6.68;;
22829;SDS011;11581;51.250;6.778;2024-01-25T09:59:00;21.58;;;7.80;;
22829;SDS011;11581;51.250;6.778;2024-01-25T10:01:27;31.88;;;8.25;;
22829;SDS011;11581;51.250;6.778;2024-01-25T10:03:55;34.60;;;8.80;;
22829;SDS011;11581;51.250;6.778;2024-01-25T10:06:22;25.23;;;7.50;;
22829;SDS011;11581;51.250;6.778;2024-01-25T10:08:48;25.92;;;7.68;;
22829;SDS011;11581;51.250;6.778;2024-01-25T10:11:15;26.70;;;7.85;;
22829;SDS011;11581;51.250;6.778;2024-01-25T10:13:42;30.55;;;8.15;;
22829;SDS011;11581;51.250;6.778;2024-01-25T10:16:10;31.65;;;7.60;;
22829;SDS011;11581;51.250;6.778;2024-01-25T10:18:36;31.38;;;8.20;;
22829;SDS011;11581;51.250;6.778;2024-01-25T10:21:04;26.77;;;7.97;;
22829;SDS011;11581;51.250;6.778;2024-01-25T10:23:32;36.38;;;8.70;;
22829;SDS011;11581;51.250;6.778;2024-01-25T10:25:59;24.77;;;6.47;;
22829;SDS011;11581;51.250;6.778;2024-01-25T10:28:25;26.58;;;7.72;;
22829;SDS011;11581;51.250;6.778;2024-01-25T10:30:55;26.73;;;7.07;;
22829;SDS011;11581;51.250;6.778;2024-01-25T10:33:22;33.03;;;8.32;;
22829;SDS011;11581;51.250;6.778;2024-01-25T10:35:49;30.67;;;7.22;;
22829;SDS011;11581;51.250;6.778;2024-01-25T10:38:18;24.55;;;7.70;;
22829;SDS011;11581;51.250;6.778;2024-01-25T10:40:45;30.98;;;7.88;;
22829;SDS011;11581;51.250;6.778;2024-01-25T10:43:12;28.52;;;7.55;;
22829;SDS011;11581;51.250;6.778;2024-01-25T10:45:38;25.17;;;7.63;;
22829;SDS011;11581;51.250;6.778;2024-01-25T10:48:06;27.63;;;7.53;;
22829;SDS011;11581;51.250;6.778;2024-01-25T10:50:33;29.70;;;8.35;;
22829;SDS011;11581;51.250;6.778;2024-01-25T10:52:59;28.10;;;7.68;;
22829;SDS011;11581;51.250;6.778;2024-01-25T10:55:28;23.73;;;8.63;;
22829;SDS011;11581;51.250;6.778;2024-01-25T10:57:55;28.67;;;6.75;;
22829;SDS011;11581;51.250;6.778;2024-01-25T11:00:21;27.25;;;7.50;;
22829;SDS011;11581;51.250;6.778;2024-01-25T11:02:47;22.92;;;8.15;;
22829;SDS011;11581;51.250;6.778;2024-01-25T11:05:15;33.80;;;7.97;;
22829;SDS011;11581;51.250;6.778;2024-01-25T11:07:42;30.80;;;8.52;;
22829;SDS011;11581;51.250;6.778;2024-01-25T11:10:16;29.10;;;8.10;;
22829;SDS011;11581;51.250;6.778;2024-01-25T11:12:55;21.02;;;6.57;;
22829;SDS011;11581;51.250;6.778;2024-01-25T11:15:22;29.20;;;7.68;;
22829;SDS011;11581;51.250;6.778;2024-01-25T11:17:55;25.45;;;6.82;;
22829;SDS011;11581;51.250;6.778;2024-01-25T11:20:22;30.23;;;7.38;;
22829;SDS011;11581;51.250;6.778;2024-01-25T11:22:54;33.72;;;8.52;;
22829;SDS011;11581;51.250;6.778;2024-01-25T11:25:21;23.40;;;6.72;;
22829;SDS011;11581;51.250;6.778;2024-01-25T11:27:48;26.17;;;7.55;;
22829;SDS011;11581;51.250;6.778;2024-01-25T11:30:18;24.92;;;7.72;;
22829;SDS011;11581;51.250;6.778;2024-01-25T11:32:45;28.25;;;8.27;;
22829;SDS011;11581;51.250;6.778;2024-01-25T11:35:12;21.23;;;6.55;;
22829;SDS011;11581;51.250;6.778;2024-01-25T11:37:41;25.90;;;7.78;;
22829;SDS011;11581;51.250;6.778;2024-01-25T11:40:08;28.63;;;7.90;;
22829;SDS011;11581;51.250;6.778;2024-01-25T11:42:35;29.63;;;7.70;;
22829;SDS011;11581;51.250;6.778;2024-01-25T11:45:02;22.65;;;7.55;;
22829;SDS011;11581;51.250;6.778;2024-01-25T11:47:30;29.92;;;8.25;;
22829;SDS011;11581;51.250;6.778;2024-01-25T11:49:56;29.05;;;8.20;;
22829;SDS011;11581;51.250;6.778;2024-01-25T11:52:22;25.30;;;8.52;;
22829;SDS011;11581;51.250;6.778;2024-01-25T11:54:51;27.77;;;8.10;;
22829;SDS011;11581;51.250;6.778;2024-01-25T11:57:16;29.05;;;9.65;;
22829;SDS011;11581;51.250;6.778;2024-01-25T11:59:43;25.77;;;8.80;;
22829;SDS011;11581;51.250;6.778;2024-01-25T12:02:10;29.58;;;9.90;;
22829;SDS011;11581;51.250;6.778;2024-01-25T12:04:38;31.70;;;9.93;;
22829;SDS011;11581;51.250;6.778;2024-01-25T12:07:05;26.10;;;10.55;;
22829;SDS011;11581;51.250;6.778;2024-01-25T12:09:32;37.20;;;11.07;;
22829;SDS011;11581;51.250;6.778;2024-01-25T12:11:59;30.48;;;12.13;;
22829;SDS011;11581;51.250;6.778;2024-01-25T12:14:27;33.50;;;13.30;;
22829;SDS011;11581;51.250;6.778;2024-01-25T12:16:54;31.20;;;11.57;;
22829;SDS011;11581;51.250;6.778;2024-01-25T12:19:21;32.10;;;12.48;;
22829;SDS011;11581;51.250;6.778;2024-01-25T12:21:49;24.63;;;10.90;;
22829;SDS011;11581;51.250;6.778;2024-01-25T12:24:16;31.40;;;11.75;;
22829;SDS011;11581;51.250;6.778;2024-01-25T12:26:42;30.27;;;11.50;;
22829;SDS011;11581;51.250;6.778;2024-01-25T12:29:08;31.52;;;11.32;;
22829;SDS011;11581;51.250;6.778;2024-01-25T12:31:36;28.40;;;10.93;;
22829;SDS011;11581;51.250;6.778;2024-01-25T12:34:02;26.40;;;11.82;;
22829;SDS011;11581;51.250;6.778;2024-01-25T12:36:29;31.17;;;12.43;;
22829;SDS011;11581;51.250;6.778;2024-01-25T12:38:56;26.85;;;10.68;;
22829;SDS011;11581;51.250;6.778;2024-01-25T12:41:23;33.22;;;11.63;;
22829;SDS011;11581;51.250;6.778;2024-01-25T12:43:49;27.40;;;11.20;;
22829;SDS011;11581;51.250;6.778;2024-01-25T12:46:16;33.45;;;12.77;;
22829;SDS011;11581;51.250;6.778;2024-01-25T12:48:42;28.48;;;11.48;;
22829;SDS011;11581;51.250;6.778;2024-01-25T12:51:09;27.65;;;11.73;;
22829;SDS011;11581;51.250;6.778;2024-01-25T12:53:35;31.20;;;11.10;;
22829;SDS011;11581;51.250;6.778;2024-01-25T12:56:04;33.60;;;13.15;;
22829;SDS011;11581;51.250;6.778;2024-01-25T12:58:31;27.40;;;11.68;;
22829;SDS011;11581;51.250;6.778;2024-01-25T13:00:57;32.10;;;11.65;;
22829;SDS011;11581;51.250;6.778;2024-01-25T13:03:24;34.38;;;12.95;;
22829;SDS011;11581;51.250;6.778;2024-01-25T13:05:50;30.83;;;11.95;;
22829;SDS011;11581;51.250;6.778;2024-01-25T13:08:17;31.20;;;12.02;;
22829;SDS011;11581;51.250;6.778;2024-01-25T13:10:43;30.60;;;12.90;;
22829;SDS011;11581;51.250;6.778;2024-01-25T13:13:11;28.38;;;11.32;;
22829;SDS011;11581;51.250;6.778;2024-01-25T13:15:37;28.90;;;11.25;;
22829;SDS011;11581;51.250;6.778;2024-01-25T13:18:04;31.35;;;12.52;;
22829;SDS011;11581;51.250;6.778;2024-01-25T13:20:30;29.33;;;11.20;;
22829;SDS011;11581;51.250;6.778;2024-01-25T13:22:57;30.08;;;11.75;;
22829;SDS011;11581;51.250;6.778;2024-01-25T13:25:23;35.55;;;12.20;;
22829;SDS011;11581;51.250;6.778;2024-01-25T13:27:50;27.25;;;11.32;;
22829;SDS011;11581;51.250;6.778;2024-01-25T13:30:18;32.22;;;11.88;;
22829;SDS011;11581;51.250;6.778;2024-01-25T13:32:44;31.17;;;12.20;;
22829;SDS011;11581;51.250;6.778;2024-01-25T13:35:11;30.05;;;11.18;;
22829;SDS011;11581;51.250;6.778;2024-01-25T13:37:37;32.20;;;11.10;;
22829;SDS011;11581;51.250;6.778;2024-01-25T13:40:05;38.35;;;11.90;;
22829;SDS011;11581;51.250;6.778;2024-01-25T13:42:32;33.95;;;10.38;;
22829;SDS011;11581;51.250;6.778;2024-01-25T13:44:58;24.17;;;9.68;;
22829;SDS011;11581;51.250;6.778;2024-01-25T13:47:26;28.98;;;10.77;;
22829;SDS011;11581;51.250;6.778;2024-01-25T13:49:52;25.73;;;9.60;;
22829;SDS011;11581;51.250;6.778;2024-01-25T13:52:19;31.85;;;11.75;;
22829;SDS011;11581;51.250;6.778;2024-01-25T13:54:46;27.67;;;10.48;;
22829;SDS011;11581;51.250;6.778;2024-01-25T13:57:14;31.13;;;10.60;;
22829;SDS011;11581;51.250;6.778;2024-01-25T13:59:40;23.13;;;10.25;;
22829;SDS011;11581;51.250;6.778;2024-01-25T14:02:07;38.17;;;10.80;;
22829;SDS011;11581;51.250;6.778;2024-01-25T14:04:35;26.80;;;9.20;;
22829;SDS011;11581;51.250;6.778;2024-01-25T14:07:01;32.90;;;9.75;;
22829;SDS011;11581;51.250;6.778;2024-01-25T14:09:28;26.33;;;9.10;;
22829;SDS011;11581;51.250;6.778;2024-01-25T14:11:55;22.08;;;8.57;;
22829;SDS011;11581;51.250;6.778;2024-01-25T14:14:21;32.92;;;9.30;;
22829;SDS011;11581;51.250;6.778;2024-01-25T14:16:48;22.88;;;9.00;;
22829;SDS011;11581;51.250;6.778;2024-01-25T14:19:14;26.65;;;8.70;;
22829;SDS011;11581;51.250;6.778;2024-01-25T14:21:43;26.15;;;8.50;;
22829;SDS011;11581;51.250;6.778;2024-01-25T14:24:11;28.58;;;8.68;;
22829;SDS011;11581;51.250;6.778;2024-01-25T14:26:37;29.67;;;9.73;;
22829;SDS011;11581;51.250;6.778;2024-01-25T14:29:04;26.30;;;8.50;;
22829;SDS011;11581;51.250;6.778;2024-01-25T14:31:30;19.58;;;7.85;;